Time;durP1;ratioP1;P1;durP2;ratioP2;P2;SDS_P1;SDS_P2;PMS_P1;PMS_P2;Temp;Humidity;BMP_temperature;BMP_pressure;BME280_temperature;BME280_humidity;BME280_pressure;Samples;Min_cycle;Max_cycle;Signal;HPM_P1;HPM_P2
2023/03/20 00:01:49;;;;;;;40.20;19.03;;;8.70;99.90;;;;;;15496149;23;20023;-78
2023/03/20 00:07:52;;;;;;;44.15;19.95;;;8.70;99.90;;;;;;15498117;23;20035;-78
2023/03/20 00:13:56;;;;;;;41.50;18.95;;;8.60;99.90;;;;;;15494808;22;20030;-78
2023/03/20 00:19:58;;;;;;;41.42;19.23;;;8.50;99.90;;;;;;15479979;22;20105;-79
2023/03/20 00:26:00;;;;;;;45.08;19.30;;;8.30;99.90;;;;;;15390163;23;20524;-79
2023/03/20 00:32:02;;;;;;;44.60;18.83;;;8.00;99.90;;;;;;15427089;23;20680;-78
2023/03/20 00:38:04;;;;;;;50.50;20.90;;;7.90;99.90;;;;;;15398606;23;20021;-78
2023/03/20 00:44:26;;;;;;;43.13;19.08;;;8.00;99.90;;;;;;15418806;23;20119;-79
2023/03/20 00:50:29;;;;;;;45.15;20.02;;;7.80;99.90;;;;;;15400076;23;20066;-78
2023/03/20 00:56:39;;;;;;;48.40;20.00;;;7.60;99.90;;;;;;15418355;23;20012;-78
2023/03/20 01:02:41;;;;;;;49.60;20.35;;;7.50;99.90;;;;;;15396427;23;20086;-78
2023/03/20 01:08:43;;;;;;;50.63;20.95;;;7.60;99.90;;;;;;15427054;23;20099;-79
2023/03/20 01:14:52;;;;;;;55.05;22.70;;;7.60;99.90;;;;;;15428390;23;20075;-78
2023/03/20 01:20:54;;;;;;;56.05;21.35;;;7.70;99.90;;;;;;15403389;23;20021;-79
2023/03/20 01:26:57;;;;;;;51.63;20.77;;;7.80;99.90;;;;;;15424772;23;20382;-78
2023/03/20 01:33:01;;;;;;;55.03;22.05;;;7.90;99.90;;;;;;15426856;23;20052;-78
2023/03/20 01:39:03;;;;;;;51.97;19.88;;;8.00;99.90;;;;;;15403030;23;20594;-79
2023/03/20 01:45:19;;;;;;;52.47;19.88;;;7.90;99.90;;;;;;15397784;23;20024;-79
2023/03/20 01:51:26;;;;;;;51.63;20.48;;;7.90;99.90;;;;;;15431998;23;20447;-79
2023/03/20 01:57:29;;;;;;;50.90;20.25;;;7.80;99.90;;;;;;15427045;23;20021;-78
2023/03/20 02:03:31;;;;;;;52.70;19.92;;;7.70;99.90;;;;;;15419426;23;20024;-78
2023/03/20 02:09:34;;;;;;;53.60;20.15;;;7.70;99.90;;;;;;15429905;23;20103;-79
2023/03/20 02:16:03;;;;;;;57.80;21.30;;;7.90;99.90;;;;;;15401696;23;20092;-79
2023/03/20 02:22:38;;;;;;;45.90;18.80;;;8.00;99.90;;;;;;15398398;23;20328;-80
2023/03/20 02:28:56;;;;;;;53.33;20.98;;;8.10;99.90;;;;;;15395402;23;20135;-78
2023/03/20 02:35:19;;;;;;;55.83;23.67;;;8.20;99.90;;;;;;15426224;23;20045;-78
2023/03/20 02:41:29;;;;;;;56.95;22.98;;;8.20;99.90;;;;;;15429682;23;20023;-78
2023/03/20 02:48:19;;;;;;;56.53;22.83;;;8.20;99.90;;;;;;15391461;23;20069;-78
2023/03/20 02:54:54;;;;;;;59.10;23.15;;;8.10;99.90;;;;;;15416876;23;20459;-78
2023/03/20 03:01:00;;;;;;;;;;;8.20;99.90;;;;;;15401178;23;20203;-78
2023/03/20 03:07:06;;;;;;;59.53;21.48;;;8.10;99.90;;;;;;15442848;23;20084;-79
2023/03/20 03:13:14;;;;;;;56.33;21.95;;;8.10;99.90;;;;;;15421840;23;20032;-78
2023/03/20 03:19:21;;;;;;;55.42;23.00;;;8.10;99.90;;;;;;15427796;23;20083;-79
2023/03/20 03:25:28;;;;;;;52.45;21.63;;;8.10;99.90;;;;;;15425843;23;20034;-78
2023/03/20 03:31:31;;;;;;;58.88;22.63;;;8.10;99.90;;;;;;15422537;23;20020;-79
2023/03/20 03:37:58;;;;;;;49.77;22.63;;;8.10;99.90;;;;;;15427895;23;20027;-78
2023/03/20 03:44:19;;;;;;;54.22;22.77;;;8.20;99.90;;;;;;15417030;23;20471;-78
2023/03/20 03:50:47;;;;;;;58.05;22.52;;;8.20;99.90;;;;;;15425192;23;20122;-78
2023/03/20 03:56:51;;;;;;;57.63;23.50;;;8.10;99.90;;;;;;15398400;23;20027;-79
2023/03/20 04:02:56;;;;;;;60.05;25.65;;;8.10;99.90;;;;;;15427847;23;20071;-78
2023/03/20 04:08:58;;;;;;;63.28;24.75;;;8.10;99.90;;;;;;15407916;23;20336;-78
2023/03/20 04:15:00;;;;;;;60.60;25.08;;;8.10;99.90;;;;;;15429248;23;20025;-78
2023/03/20 04:21:04;;;;;;;62.40;26.93;;;8.10;99.90;;;;;;15425704;23;20020;-78
2023/03/20 04:27:06;;;;;;;60.47;27.05;;;8.10;99.90;;;;;;15425667;23;20025;-78
2023/03/20 04:33:09;;;;;;;63.17;25.73;;;8.00;99.90;;;;;;15426658;23;20484;-79
2023/03/20 04:39:11;;;;;;;67.22;26.38;;;8.10;99.90;;;;;;15427440;23;20074;-79
2023/03/20 04:45:13;;;;;;;58.42;26.48;;;8.10;99.90;;;;;;15398001;23;20052;-78
2023/03/20 04:51:15;;;;;;;62.63;25.90;;;8.00;99.90;;;;;;15425630;23;20052;-79
2023/03/20 04:57:16;;;;;;;59.97;27.10;;;8.00;99.90;;;;;;15395891;23;20098;-79
2023/03/20 05:03:18;;;;;;;59.50;25.27;;;8.10;99.90;;;;;;15395293;23;20020;-78
2023/03/20 05:09:24;;;;;;;48.67;22.75;;;8.10;99.90;;;;;;15385941;23;20020;-78
2023/03/20 05:15:26;;;;;;;49.35;22.67;;;8.20;99.90;;;;;;15398569;23;20048;-78
2023/03/20 05:21:28;;;;;;;48.33;21.80;;;8.20;99.90;;;;;;15400348;23;20099;-78
2023/03/20 05:27:30;;;;;;;47.35;22.20;;;8.10;99.90;;;;;;15427496;23;20031;-78
2023/03/20 05:33:32;;;;;;;55.42;23.80;;;8.00;99.90;;;;;;15426960;23;20028;-79
2023/03/20 05:39:33;;;;;;;46.15;22.55;;;8.00;99.90;;;;;;15423758;23;20029;-79
2023/03/20 05:45:35;;;;;;;44.35;22.00;;;8.10;99.90;;;;;;15397201;23;20048;-79
2023/03/20 05:51:38;;;;;;;40.13;19.63;;;8.10;99.90;;;;;;15400919;23;20027;-79
2023/03/20 05:57:40;;;;;;;39.03;19.92;;;8.00;99.90;;;;;;15426170;23;20383;-78
2023/03/20 06:03:42;;;;;;;40.00;19.90;;;8.10;99.90;;;;;;15395649;23;20048;-78
2023/03/20 06:09:44;;;;;;;37.53;18.05;;;8.00;99.90;;;;;;15399111;23;20036;-78
2023/03/20 06:15:46;;;;;;;35.38;18.17;;;8.00;99.90;;;;;;15402114;23;20107;-79
2023/03/20 06:21:49;;;;;;;33.60;17.63;;;8.00;99.90;;;;;;15430839;23;20031;-78
2023/03/20 06:27:51;;;;;;;32.67;17.48;;;8.10;99.90;;;;;;15403790;23;20394;-79
2023/03/20 06:33:53;;;;;;;32.28;17.52;;;8.10;99.90;;;;;;15430713;23;20029;-79
2023/03/20 06:39:55;;;;;;;34.05;17.65;;;8.00;99.90;;;;;;15433618;23;20363;-79
2023/03/20 06:45:57;;;;;;;37.85;19.33;;;8.00;99.90;;;;;;15405697;23;20048;-78
2023/03/20 06:51:59;;;;;;;31.42;17.50;;;8.00;99.90;;;;;;15430054;23;20048;-79
2023/03/20 06:58:01;;;;;;;33.13;18.08;;;8.10;99.90;;;;;;15426458;23;20509;-78
2023/03/20 07:04:03;;;;;;;33.15;18.63;;;8.20;99.90;;;;;;15427239;23;20044;-79
2023/03/20 07:10:05;;;;;;;34.53;17.80;;;8.20;99.90;;;;;;15432151;23;20021;-78
2023/03/20 07:16:07;;;;;;;30.27;17.05;;;8.30;99.90;;;;;;15365769;23;20095;-79
2023/03/20 07:22:22;;;;;;;27.90;16.27;;;8.40;99.90;;;;;;15402371;23;20095;-80
2023/03/20 07:28:24;;;;;;;;;;;8.40;99.90;;;;;;15402300;23;20020;-79
2023/03/20 07:34:26;;;;;;;29.35;17.13;;;8.30;99.90;;;;;;15430721;23;20057;-79
2023/03/20 07:40:28;;;;;;;32.45;18.35;;;8.40;99.90;;;;;;15400590;23;20025;-78
2023/03/20 07:46:30;;;;;;;31.17;16.73;;;8.50;99.90;;;;;;15426921;23;20024;-79
2023/03/20 07:52:32;;;;;;;27.73;15.82;;;8.40;99.90;;;;;;15404271;23;20478;-79
2023/03/20 07:58:34;;;;;;;30.90;17.27;;;8.50;99.90;;;;;;15428923;23;20025;-79
2023/03/20 08:04:36;;;;;;;32.60;17.45;;;8.40;99.90;;;;;;15401877;23;20095;-79
2023/03/20 08:10:38;;;;;;;28.30;16.80;;;8.40;99.90;;;;;;15421902;23;20024;-79
2023/03/20 08:16:40;;;;;;;28.10;16.48;;;8.60;99.90;;;;;;15398927;23;20071;-79
2023/03/20 08:22:45;;;;;;;26.08;14.88;;;8.60;99.90;;;;;;15402214;23;20017;-79
2023/03/20 08:28:47;;;;;;;20.08;12.52;;;8.60;99.90;;;;;;15422900;23;20087;-79
2023/03/20 08:34:53;;;;;;;18.03;11.17;;;8.70;99.90;;;;;;15397750;23;20025;-79
2023/03/20 08:40:55;;;;;;;13.60;9.20;;;8.90;99.90;;;;;;15398081;23;20076;-79
2023/03/20 08:46:58;;;;;;;13.07;8.43;;;9.10;99.90;;;;;;15419984;23;20024;-78
2023/03/20 08:53:00;;;;;;;10.02;6.00;;;9.10;99.90;;;;;;15429957;23;20052;-79
2023/03/20 08:59:02;;;;;;;10.90;6.40;;;9.10;99.90;;;;;;15396954;23;20377;-79
2023/03/20 09:05:05;;;;;;;11.50;6.65;;;9.20;99.90;;;;;;15396069;23;20108;-79
2023/03/20 09:11:07;;;;;;;9.38;5.80;;;9.30;99.90;;;;;;15422519;23;20318;-79
2023/03/20 09:17:09;;;;;;;10.45;5.35;;;9.40;99.90;;;;;;15402168;23;20027;-78
2023/03/20 09:23:11;;;;;;;7.93;4.93;;;9.40;99.90;;;;;;15400876;23;20048;-78
2023/03/20 09:29:13;;;;;;;8.40;4.75;;;9.40;99.90;;;;;;15397792;23;20060;-78
2023/03/20 09:35:15;;;;;;;11.27;5.10;;;9.50;99.90;;;;;;15396602;23;20017;-78
2023/03/20 09:41:20;;;;;;;9.70;5.38;;;9.70;99.90;;;;;;15414143;23;20471;-79
2023/03/20 09:47:32;;;;;;;9.32;5.30;;;9.90;99.90;;;;;;15407549;23;20359;-78
2023/03/20 09:53:39;;;;;;;12.55;5.85;;;9.80;99.90;;;;;;15404690;23;20079;-79
2023/03/20 09:59:41;;;;;;;9.85;5.53;;;9.80;99.90;;;;;;15404868;23;20459;-79
2023/03/20 10:06:01;;;;;;;12.20;6.05;;;9.80;99.90;;;;;;15396124;23;20048;-77
2023/03/20 10:12:27;;;;;;;9.95;6.38;;;9.70;99.90;;;;;;15403063;23;20103;-78
2023/03/20 10:18:34;;;;;;;13.20;6.88;;;9.80;99.90;;;;;;15403416;23;20336;-78
2023/03/20 10:24:43;;;;;;;11.80;7.15;;;9.60;99.90;;;;;;15486365;23;20458;-78
2023/03/20 10:31:11;;;;;;;13.30;7.43;;;9.60;99.90;;;;;;15503028;22;20086;-78
2023/03/20 10:37:22;;;;;;;11.82;7.72;;;9.80;99.90;;;;;;15500729;23;20016;-77
2023/03/20 10:43:32;;;;;;;14.13;6.65;;;9.70;99.90;;;;;;15498121;22;20016;-77
2023/03/20 10:49:45;;;;;;;11.93;7.10;;;9.90;99.90;;;;;;15504257;23;20357;-77
2023/03/20 10:55:47;;;;;;;12.07;6.28;;;9.80;99.90;;;;;;15502549;22;20070;-78
2023/03/20 11:01:49;;;;;;;10.80;5.78;;;9.80;99.90;;;;;;15506748;23;20393;-78
2023/03/20 11:08:04;;;;;;;10.88;6.20;;;9.70;99.90;;;;;;15502959;23;20028;-77
2023/03/20 11:14:17;;;;;;;13.55;7.78;;;9.80;99.90;;;;;;15502236;23;20559;-78
2023/03/20 11:20:19;;;;;;;11.90;6.35;;;10.10;99.90;;;;;;15477823;22;20040;-77
2023/03/20 11:26:40;;;;;;;10.00;6.35;;;10.00;99.90;;;;;;15400975;23;20095;-78
2023/03/20 11:32:48;;;;;;;11.00;6.47;;;10.30;99.90;;;;;;15428275;23;20025;-78
2023/03/20 11:38:52;;;;;;;10.32;5.03;;;10.20;99.90;;;;;;15427496;23;20017;-78
2023/03/20 11:45:05;;;;;;;10.43;4.78;;;10.10;99.90;;;;;;15429989;23;20134;-77
2023/03/20 11:51:09;;;;;;;10.52;5.10;;;10.20;99.90;;;;;;15426990;23;20455;-79
2023/03/20 11:57:34;;;;;;;7.90;4.50;;;10.50;99.90;;;;;;15425546;23;20738;-78
2023/03/20 12:03:41;;;;;;;7.72;4.72;;;10.70;99.90;;;;;;15403716;23;20103;-78
2023/03/20 12:09:48;;;;;;;8.27;4.75;;;10.80;99.90;;;;;;15401947;23;20024;-78
2023/03/20 12:16:00;;;;;;;7.68;4.07;;;10.80;99.90;;;;;;15400652;23;20107;-77
2023/03/20 12:22:27;;;;;;;8.63;3.92;;;10.60;99.90;;;;;;15413995;23;20016;-78
2023/03/20 12:28:37;;;;;;;8.25;3.13;;;10.70;99.90;;;;;;15425263;23;20390;-77
2023/03/20 12:35:01;;;;;;;6.88;3.13;;;10.60;99.90;;;;;;15401492;23;20390;-78
2023/03/20 12:41:23;;;;;;;8.77;3.22;;;10.60;99.90;;;;;;15424326;23;20023;-77
2023/03/20 12:47:43;;;;;;;7.63;3.33;;;10.70;99.90;;;;;;15393963;23;20028;-77
2023/03/20 12:54:23;;;;;;;10.13;3.03;;;10.80;99.90;;;;;;15422415;23;20024;-79
2023/03/20 13:00:49;;;;;;;11.13;3.17;;;10.60;99.90;;;;;;15382162;23;20095;-78
2023/03/20 13:07:00;;;;;;;7.60;2.95;;;10.60;99.90;;;;;;15394787;23;20024;-78
2023/03/20 13:13:21;;;;;;;9.52;2.83;;;10.60;99.90;;;;;;15405515;23;20017;-78
2023/03/20 13:19:42;;;;;;;5.90;2.55;;;10.70;99.90;;;;;;15400383;23;20375;-77
2023/03/20 13:26:16;;;;;;;5.97;2.78;;;10.50;99.90;;;;;;15431868;22;20056;-78
2023/03/20 13:32:44;;;;;;;8.32;2.80;;;10.20;99.90;;;;;;15399083;23;20030;-78
2023/03/20 13:38:53;;;;;;;6.18;2.63;;;10.20;99.90;;;;;;15390046;23;20028;-78
2023/03/20 13:45:04;;;;;;;8.48;2.78;;;10.20;99.90;;;;;;15394983;23;20020;-78
2023/03/20 13:51:37;;;;;;;8.63;2.42;;;10.20;99.90;;;;;;15432297;22;20021;-77
2023/03/20 13:58:10;;;;;;;3.67;2.00;;;10.20;99.90;;;;;;15432878;23;20126;-78
2023/03/20 14:04:17;;;;;;;6.05;2.72;;;10.10;99.90;;;;;;15403062;23;20104;-77
2023/03/20 14:10:23;;;;;;;10.65;3.47;;;10.00;99.90;;;;;;15427592;23;20044;-78
2023/03/20 14:16:27;;;;;;;6.25;3.80;;;9.80;99.90;;;;;;15428816;23;20048;-76
2023/03/20 14:22:34;;;;;;;9.55;4.70;;;9.80;99.90;;;;;;15430683;23;20025;-78
2023/03/20 14:28:55;;;;;;;9.80;4.43;;;9.80;99.90;;;;;;15428533;23;20048;-77
2023/03/20 14:35:28;;;;;;;9.85;4.18;;;9.70;99.90;;;;;;15401472;23;20020;-77
2023/03/20 14:42:01;;;;;;;7.32;3.60;;;9.60;99.90;;;;;;15406943;23;20017;-77
2023/03/20 14:48:32;;;;;;;9.38;3.97;;;9.60;99.90;;;;;;15432145;23;20021;-77
2023/03/20 14:54:34;;;;;;;9.05;3.60;;;9.50;99.90;;;;;;15407003;23;20024;-77
2023/03/20 15:00:45;;;;;;;6.75;4.53;;;9.40;99.90;;;;;;15404737;23;20029;-78
2023/03/20 15:06:53;;;;;;;9.52;4.40;;;9.30;99.90;;;;;;15396539;23;20024;-77
2023/03/20 15:12:56;;;;;;;11.65;4.75;;;9.30;99.90;;;;;;15428818;23;20024;-77
2023/03/20 15:18:59;;;;;;;9.25;5.28;;;9.40;99.90;;;;;;15401600;23;20039;-77
2023/03/20 15:25:01;;;;;;;11.73;5.55;;;9.40;99.90;;;;;;15491579;23;20024;-77
2023/03/20 15:31:05;;;;;;;8.55;5.97;;;9.40;99.90;;;;;;15500471;22;20528;-78
2023/03/20 15:37:16;;;;;;;8.32;4.93;;;9.40;99.90;;;;;;15499753;23;20108;-79
2023/03/20 15:43:21;;;;;;;9.88;5.30;;;9.50;99.90;;;;;;15504235;22;20374;-79
2023/03/20 15:49:24;;;;;;;9.50;4.88;;;9.50;99.90;;;;;;15502615;23;20082;-78
2023/03/20 15:55:27;;;;;;;9.20;4.80;;;9.50;99.90;;;;;;15500231;23;20062;-78
2023/03/20 16:01:31;;;;;;;6.97;4.05;;;9.50;99.90;;;;;;15497679;23;20027;-78
2023/03/20 16:07:33;;;;;;;7.20;4.28;;;9.50;99.90;;;;;;15498724;22;20089;-77
2023/03/20 16:13:39;;;;;;;7.97;4.70;;;9.40;99.90;;;;;;15499941;22;20103;-78
2023/03/20 16:19:41;;;;;;;10.95;4.32;;;9.20;99.90;;;;;;15495615;22;20343;-78
2023/03/20 16:25:44;;;;;;;7.13;4.05;;;9.00;99.90;;;;;;15423994;23;20051;-77
2023/03/20 16:31:55;;;;;;;8.93;4.30;;;8.90;99.90;;;;;;15425671;23;20398;-77
2023/03/20 16:38:01;;;;;;;6.97;3.88;;;8.90;99.90;;;;;;15422349;23;20511;-79
2023/03/20 16:44:10;;;;;;;6.05;4.20;;;8.80;99.90;;;;;;15396826;23;20470;-78
2023/03/20 16:50:22;;;;;;;9.93;4.22;;;8.70;99.90;;;;;;15426502;23;20533;-78
2023/03/20 16:56:34;;;;;;;8.00;4.32;;;8.80;99.90;;;;;;15424170;23;20068;-78
2023/03/20 17:02:39;;;;;;;5.82;4.18;;;8.70;99.90;;;;;;15387323;23;20098;-76
2023/03/20 17:08:47;;;;;;;9.98;3.80;;;8.70;99.90;;;;;;15396634;23;20020;-78
2023/03/20 17:14:50;;;;;;;8.32;3.50;;;8.60;99.90;;;;;;15398371;23;20036;-78
2023/03/20 17:20:51;;;;;;;8.35;3.40;;;8.50;99.90;;;;;;15395318;23;20020;-79
2023/03/20 17:26:57;;;;;;;7.80;3.50;;;8.40;99.90;;;;;;15396266;23;20102;-78
2023/03/20 17:32:59;;;;;;;7.70;3.45;;;8.30;99.90;;;;;;15400329;23;20553;-78
2023/03/20 17:39:01;;;;;;;8.73;3.53;;;8.30;99.90;;;;;;15426896;23;20031;-77
2023/03/20 17:45:04;;;;;;;6.75;3.58;;;8.30;99.90;;;;;;15397860;23;20020;-77
2023/03/20 17:51:07;;;;;;;7.00;3.72;;;8.30;99.90;;;;;;15399203;23;20036;-77
2023/03/20 17:57:38;;;;;;;8.35;3.92;;;8.20;99.90;;;;;;15433942;23;20024;-78
2023/03/20 18:03:40;;;;;;;7.35;4.38;;;8.20;99.90;;;;;;15401130;23;20107;-77
2023/03/20 18:09:43;;;;;;;10.35;5.32;;;8.20;99.90;;;;;;15406346;23;20020;-78
2023/03/20 18:15:46;;;;;;;8.68;5.28;;;8.20;99.90;;;;;;15402467;23;20459;-79
2023/03/20 18:21:48;;;;;;;10.40;5.35;;;8.20;99.90;;;;;;15405299;23;20482;-77
2023/03/20 18:27:50;;;;;;;9.85;5.80;;;8.10;99.90;;;;;;15406114;23;20021;-77
2023/03/20 18:33:52;;;;;;;8.43;5.60;;;8.00;99.90;;;;;;15426227;23;20025;-78
2023/03/20 18:39:56;;;;;;;14.52;8.90;;;7.90;99.90;;;;;;15425113;23;20020;-78
2023/03/20 18:45:58;;;;;;;13.27;7.53;;;7.90;99.90;;;;;;15404393;23;20028;-79
2023/03/20 18:52:02;;;;;;;15.93;8.52;;;7.80;99.90;;;;;;15404602;23;20024;-78
2023/03/20 18:58:05;;;;;;;17.58;9.43;;;7.80;99.90;;;;;;15429108;23;20024;-79
2023/03/20 19:04:07;;;;;;;15.32;10.63;;;7.70;99.90;;;;;;15396988;23;20344;-78
2023/03/20 19:10:32;;;;;;;17.00;10.68;;;7.50;99.90;;;;;;15404067;23;20054;-78
2023/03/20 19:16:36;;;;;;;18.83;11.23;;;7.40;99.90;;;;;;15422479;23;20355;-78
2023/03/20 19:22:39;;;;;;;20.00;12.27;;;7.30;99.90;;;;;;15403462;23;20021;-78
2023/03/20 19:28:41;;;;;;;22.55;12.90;;;7.30;99.90;;;;;;15417902;23;20024;-78
2023/03/20 19:34:44;;;;;;;21.33;12.47;;;7.10;99.90;;;;;;15430084;23;20028;-78
2023/03/20 19:41:07;;;;;;;20.92;13.30;;;7.10;99.90;;;;;;15385485;23;20032;-79
2023/03/20 19:47:09;;;;;;;21.55;14.43;;;7.10;99.90;;;;;;15401265;23;20016;-79
2023/03/20 19:53:14;;;;;;;27.13;15.30;;;7.10;99.90;;;;;;15401675;23;20020;-78
2023/03/20 19:59:16;;;;;;;29.20;15.20;;;7.00;99.90;;;;;;15394631;23;20347;-78
2023/03/20 20:05:30;;;;;;;26.40;16.70;;;7.10;99.90;;;;;;15397368;23;20021;-79
2023/03/20 20:11:32;;;;;;;27.73;17.85;;;7.00;99.90;;;;;;15393298;23;20398;-78
2023/03/20 20:17:34;;;;;;;25.83;17.17;;;7.00;99.90;;;;;;15421645;23;20066;-79
2023/03/20 20:23:37;;;;;;;32.67;18.42;;;7.00;99.90;;;;;;15420535;23;20029;-79
2023/03/20 20:29:39;;;;;;;28.08;17.95;;;7.10;99.90;;;;;;15395491;23;20028;-79
2023/03/20 20:35:41;;;;;;;33.75;18.13;;;7.10;99.90;;;;;;15399005;23;20402;-79
2023/03/20 20:42:03;;;;;;;24.73;17.38;;;7.20;99.90;;;;;;15402802;23;20020;-79
2023/03/20 20:48:07;;;;;;;27.48;17.00;;;7.20;99.90;;;;;;15398577;23;20040;-78
2023/03/20 20:54:08;;;;;;;23.55;16.65;;;7.30;99.90;;;;;;15396722;23;20029;-79
2023/03/20 21:00:11;;;;;;;27.00;16.60;;;7.30;99.90;;;;;;15423175;23;20032;-78
2023/03/20 21:06:13;;;;;;;24.90;15.93;;;7.30;99.90;;;;;;15399185;23;20025;-78
2023/03/20 21:12:18;;;;;;;28.85;15.73;;;7.30;99.90;;;;;;15426751;23;20380;-79
2023/03/20 21:18:37;;;;;;;29.15;15.48;;;7.30;99.90;;;;;;15425092;23;20095;-78
2023/03/20 21:24:39;;;;;;;26.50;15.73;;;7.30;99.90;;;;;;15425512;23;20027;-80
2023/03/20 21:30:41;;;;;;;24.92;15.73;;;7.30;99.90;;;;;;15398135;23;20016;-79
2023/03/20 21:37:03;;;;;;;27.38;16.17;;;7.30;99.90;;;;;;15401604;23;20016;-78
2023/03/20 21:43:25;;;;;;;27.50;15.52;;;7.30;99.90;;;;;;15399885;23;20024;-78
2023/03/20 21:49:28;;;;;;;28.27;15.23;;;7.30;99.90;;;;;;15428848;23;20107;-79
2023/03/20 21:55:50;;;;;;;28.67;16.73;;;7.40;99.90;;;;;;15410551;23;20032;-78
2023/03/20 22:02:14;;;;;;;30.05;16.40;;;7.40;99.90;;;;;;15428239;23;20025;-80
2023/03/20 22:08:25;;;;;;;30.20;17.10;;;7.50;99.90;;;;;;15404639;23;20027;-78
2023/03/20 22:14:48;;;;;;;32.50;17.27;;;7.40;99.90;;;;;;15398875;23;20035;-79
2023/03/20 22:21:10;;;;;;;28.42;17.35;;;7.50;99.90;;;;;;15428551;23;20020;-79
2023/03/20 22:27:31;;;;;;;33.03;17.35;;;7.50;99.90;;;;;;15402428;23;20023;-79
2023/03/20 22:33:53;;;;;;;30.75;15.85;;;7.50;99.90;;;;;;15402596;23;20021;-78
2023/03/20 22:40:16;;;;;;;29.00;14.50;;;7.50;99.90;;;;;;15407610;23;20043;-79
2023/03/20 22:46:39;;;;;;;25.75;14.07;;;7.50;99.90;;;;;;15427692;23;20451;-78
2023/03/20 22:52:46;;;;;;;28.33;13.95;;;7.60;99.90;;;;;;15430733;23;20036;-79
2023/03/20 22:58:50;;;;;;;22.17;13.63;;;7.50;99.90;;;;;;15425395;23;20103;-79
2023/03/20 23:04:53;;;;;;;27.70;14.07;;;7.60;99.90;;;;;;15427475;23;20031;-78
2023/03/20 23:10:55;;;;;;;22.80;12.40;;;7.60;99.90;;;;;;15428349;23;20025;-78
2023/03/20 23:16:57;;;;;;;25.13;11.77;;;7.60;99.90;;;;;;15397221;23;20039;-78
2023/03/20 23:22:59;;;;;;;21.98;11.38;;;7.60;99.90;;;;;;15401681;23;20107;-79
2023/03/20 23:29:02;;;;;;;27.98;11.20;;;7.60;99.90;;;;;;15420351;23;20106;-78
2023/03/20 23:35:05;;;;;;;32.47;11.15;;;7.70;99.90;;;;;;15396145;23;20055;-78
2023/03/20 23:41:08;;;;;;;21.98;11.27;;;7.80;99.90;;;;;;15398135;23;20021;-79
2023/03/20 23:47:10;;;;;;;21.00;10.65;;;7.80;99.90;;;;;;15402906;23;20021;-79
2023/03/20 23:53:22;;;;;;;24.23;10.90;;;7.80;99.90;;;;;;15403109;23;20021;-79
2023/03/20 23:59:24;;;;;;;32.08;12.50;;;7.90;99.90;;;;;;15428267;23;20031;-78
